Time;durP1;ratioP1;P1;durP2;ratioP2;P2;SDS_P1;SDS_P2;PMS_P1;PMS_P2;Temp;Humidity;BMP_temperature;BMP_pressure;BME280_temperature;BME280_humidity;BME280_pressure;Samples;Min_cycle;Max_cycle;Signal;HPM_P1;HPM_P2
2021/09/07 00:02:00;;;;;;;22.52;16.77;;;;;;;;;;4800984;29;20042;-86
2021/09/07 00:04:29;;;;;;;26.00;17.38;;;;;;;;;;4785138;29;20026;-86
2021/09/07 00:06:57;;;;;;;21.98;15.77;;;;;;;;;;4804441;29;20567;-87
2021/09/07 00:09:23;;;;;;;23.38;16.60;;;;;;;;;;4803672;29;20546;-86
2021/09/07 00:11:48;;;;;;;26.17;18.30;;;;;;;;;;4782590;29;20129;-86
2021/09/07 00:14:14;;;;;;;28.30;17.58;;;;;;;;;;4788441;29;20658;-86
2021/09/07 00:16:39;;;;;;;25.88;18.17;;;;;;;;;;4792661;29;20520;-86
2021/09/07 00:19:05;;;;;;;27.15;17.90;;;;;;;;;;4775759;29;20039;-85
2021/09/07 00:21:30;;;;;;;22.88;16.88;;;;;;;;;;4771586;29;21587;-86
2021/09/07 00:23:55;;;;;;;25.65;18.60;;;;;;;;;;4777734;29;20045;-86
2021/09/07 00:26:21;;;;;;;26.27;18.83;;;;;;;;;;4775361;29;20083;-86
2021/09/07 00:28:46;;;;;;;25.77;17.45;;;;;;;;;;4803054;29;20486;-86
2021/09/07 00:31:12;;;;;;;25.27;18.23;;;;;;;;;;4792245;29;20058;-86
2021/09/07 00:33:37;;;;;;;24.58;17.63;;;;;;;;;;4789089;29;20070;-87
2021/09/07 00:36:03;;;;;;;25.10;17.52;;;;;;;;;;4781217;29;20531;-86
2021/09/07 00:38:28;;;;;;;25.48;17.58;;;;;;;;;;4785471;29;20336;-86
2021/09/07 00:40:54;;;;;;;28.30;17.30;;;;;;;;;;4806034;29;20038;-86
2021/09/07 00:43:21;;;;;;;25.08;17.73;;;;;;;;;;4797637;29;20095;-86
2021/09/07 00:45:47;;;;;;;24.70;17.60;;;;;;;;;;4784055;29;20042;-86
2021/09/07 00:48:13;;;;;;;27.58;18.70;;;;;;;;;;4806807;29;20019;-86
2021/09/07 00:50:38;;;;;;;26.00;18.02;;;;;;;;;;4791408;29;20402;-86
2021/09/07 00:53:04;;;;;;;24.73;17.65;;;;;;;;;;4785817;29;20038;-86
2021/09/07 00:55:31;;;;;;;28.67;18.60;;;;;;;;;;4806104;29;20475;-86
2021/09/07 00:57:56;;;;;;;25.13;18.60;;;;;;;;;;4825081;29;20585;-86
2021/09/07 01:00:22;;;;;;;25.00;18.25;;;;;;;;;;4803658;29;20030;-86
2021/09/07 01:02:47;;;;;;;24.65;17.20;;;;;;;;;;4800092;29;20117;-86
2021/09/07 01:05:13;;;;;;;24.58;17.50;;;;;;;;;;4786214;29;20483;-86
2021/09/07 01:07:39;;;;;;;25.10;17.10;;;;;;;;;;4785390;29;20517;-86
2021/09/07 01:10:28;;;;;;;23.75;16.98;;;;;;;;;;4796699;29;20027;-86
2021/09/07 01:12:56;;;;;;;24.02;17.23;;;;;;;;;;4819276;29;20740;-86
2021/09/07 01:15:21;;;;;;;25.42;16.67;;;;;;;;;;4774286;29;20094;-86
2021/09/07 01:17:47;;;;;;;22.52;16.08;;;;;;;;;;4803798;29;20030;-86
2021/09/07 01:20:13;;;;;;;22.10;15.95;;;;;;;;;;4802337;29;20548;-86
2021/09/07 01:22:38;;;;;;;24.02;16.88;;;;;;;;;;4795259;29;20182;-86
2021/09/07 01:25:04;;;;;;;21.52;15.82;;;;;;;;;;4781890;29;20134;-86
2021/09/07 01:27:30;;;;;;;23.02;15.88;;;;;;;;;;4784419;29;20046;-86
2021/09/07 01:29:56;;;;;;;22.33;15.57;;;;;;;;;;4788417;29;20041;-86
2021/09/07 01:32:21;;;;;;;23.27;16.80;;;;;;;;;;4786277;29;20132;-86
2021/09/07 01:34:48;;;;;;;23.98;16.92;;;;;;;;;;4823190;29;20050;-86
2021/09/07 01:37:14;;;;;;;24.50;16.70;;;;;;;;;;4796248;29;20548;-85
2021/09/07 01:39:40;;;;;;;22.05;15.88;;;;;;;;;;4789471;29;20038;-86
2021/09/07 01:42:06;;;;;;;22.52;15.75;;;;;;;;;;4786943;29;20038;-86
2021/09/07 01:44:32;;;;;;;24.55;16.38;;;;;;;;;;4806200;29;20062;-86
2021/09/07 01:46:58;;;;;;;22.05;16.55;;;;;;;;;;4805366;29;20509;-85
2021/09/07 01:49:23;;;;;;;24.40;16.48;;;;;;;;;;4788551;29;20031;-86
2021/09/07 01:51:49;;;;;;;23.67;16.10;;;;;;;;;;4771818;29;20035;-86
2021/09/07 01:54:15;;;;;;;24.77;16.02;;;;;;;;;;4780058;29;20037;-86
2021/09/07 01:56:41;;;;;;;22.85;15.00;;;;;;;;;;4816422;29;20039;-85
2021/09/07 01:59:07;;;;;;;21.90;15.60;;;;;;;;;;4779961;29;20482;-86
2021/09/07 02:01:32;;;;;;;21.85;15.55;;;;;;;;;;4788738;29;20110;-87
2021/09/07 02:03:58;;;;;;;22.52;15.90;;;;;;;;;;4820903;29;20117;-86
2021/09/07 02:06:24;;;;;;;22.40;15.70;;;;;;;;;;4802895;29;20032;-85
2021/09/07 02:08:49;;;;;;;22.77;16.33;;;;;;;;;;4800998;29;20037;-86
2021/09/07 02:11:15;;;;;;;22.80;16.55;;;;;;;;;;4796229;29;20513;-86
2021/09/07 02:13:41;;;;;;;23.52;15.98;;;;;;;;;;4823176;29;20499;-86
2021/09/07 02:16:06;;;;;;;21.95;16.05;;;;;;;;;;4809998;29;20049;-86
2021/09/07 02:18:32;;;;;;;22.80;15.70;;;;;;;;;;4802811;29;20512;-86
2021/09/07 02:20:57;;;;;;;22.08;15.65;;;;;;;;;;4771364;29;20058;-85
2021/09/07 02:23:23;;;;;;;24.58;16.55;;;;;;;;;;4789187;29;20043;-86
2021/09/07 02:25:48;;;;;;;21.80;15.43;;;;;;;;;;4805717;29;20406;-86
2021/09/07 02:28:13;;;;;;;21.95;15.70;;;;;;;;;;4777238;29;20134;-86
2021/09/07 02:30:39;;;;;;;23.83;16.77;;;;;;;;;;4787322;29;20050;-86
2021/09/07 02:33:04;;;;;;;24.05;17.10;;;;;;;;;;4801809;29;20050;-86
2021/09/07 02:35:33;;;;;;;24.40;16.98;;;;;;;;;;4809333;29;20085;-85
2021/09/07 02:37:59;;;;;;;23.48;15.82;;;;;;;;;;4808291;29;20482;-86
2021/09/07 02:40:24;;;;;;;21.63;16.17;;;;;;;;;;4806385;29;20118;-86
2021/09/07 02:42:50;;;;;;;21.95;16.50;;;;;;;;;;4798244;29;20034;-85
2021/09/07 02:45:15;;;;;;;21.63;15.80;;;;;;;;;;4775519;29;20038;-86
2021/09/07 02:47:41;;;;;;;23.10;16.48;;;;;;;;;;4791173;29;20043;-86
2021/09/07 02:50:11;;;;;;;21.38;16.27;;;;;;;;;;4783193;29;20037;-86
2021/09/07 02:52:37;;;;;;;23.52;15.68;;;;;;;;;;4810034;29;21344;-85
2021/09/07 02:55:04;;;;;;;23.88;16.08;;;;;;;;;;4806984;29;20046;-86
2021/09/07 02:57:29;;;;;;;24.50;16.02;;;;;;;;;;4824234;29;20175;-86
2021/09/07 02:59:56;;;;;;;22.17;16.30;;;;;;;;;;4788328;29;20909;-86
2021/09/07 03:02:22;;;;;;;24.02;16.30;;;;;;;;;;4781256;29;20109;-86
2021/09/07 03:04:47;;;;;;;23.13;16.17;;;;;;;;;;4783054;29;20120;-85
2021/09/07 03:07:12;;;;;;;23.05;16.02;;;;;;;;;;4806347;29;20038;-86
2021/09/07 03:09:38;;;;;;;21.73;15.10;;;;;;;;;;4793588;29;20122;-84
2021/09/07 03:12:04;;;;;;;22.33;15.35;;;;;;;;;;4780244;29;20094;-86
2021/09/07 03:14:29;;;;;;;23.63;15.80;;;;;;;;;;4792823;29;20046;-85
2021/09/07 03:16:55;;;;;;;22.90;16.17;;;;;;;;;;4783769;29;20035;-86
2021/09/07 03:19:20;;;;;;;22.17;15.45;;;;;;;;;;4794990;29;20073;-86
2021/09/07 03:21:45;;;;;;;21.88;15.02;;;;;;;;;;4779693;29;20043;-86
2021/09/07 03:24:11;;;;;;;23.35;16.40;;;;;;;;;;4798460;29;20045;-85
2021/09/07 03:26:36;;;;;;;23.60;16.45;;;;;;;;;;4786258;29;20066;-85
2021/09/07 03:29:02;;;;;;;22.38;15.30;;;;;;;;;;4793488;29;20041;-85
2021/09/07 03:31:27;;;;;;;24.48;16.52;;;;;;;;;;4777843;29;20087;-85
2021/09/07 03:33:53;;;;;;;20.98;15.43;;;;;;;;;;4787800;29;20111;-85
2021/09/07 03:36:19;;;;;;;22.50;17.02;;;;;;;;;;4813096;29;20033;-86
2021/09/07 03:38:44;;;;;;;23.02;16.45;;;;;;;;;;4809958;29;20106;-86
2021/09/07 03:41:12;;;;;;;20.90;15.48;;;;;;;;;;4802035;29;20094;-86
2021/09/07 03:43:37;;;;;;;22.90;16.70;;;;;;;;;;4793350;29;20034;-86
2021/09/07 03:46:03;;;;;;;22.75;15.43;;;;;;;;;;4770110;29;20544;-86
2021/09/07 03:48:28;;;;;;;22.58;16.13;;;;;;;;;;4782646;29;20027;-86
2021/09/07 03:50:54;;;;;;;23.20;16.50;;;;;;;;;;4775641;29;20066;-86
2021/09/07 03:53:19;;;;;;;22.60;16.38;;;;;;;;;;4782269;29;20038;-85
2021/09/07 03:55:45;;;;;;;23.65;16.40;;;;;;;;;;4792445;29;20053;-85
2021/09/07 03:58:10;;;;;;;22.55;15.73;;;;;;;;;;4770343;29;20035;-85
2021/09/07 04:00:35;;;;;;;24.15;15.95;;;;;;;;;;4791292;29;20596;-85
2021/09/07 04:03:01;;;;;;;24.83;17.00;;;;;;;;;;4806733;29;20706;-86
2021/09/07 04:05:26;;;;;;;22.77;16.63;;;;;;;;;;4786319;29;20046;-86
2021/09/07 04:07:52;;;;;;;25.92;17.17;;;;;;;;;;4789519;29;20068;-85
2021/09/07 04:10:17;;;;;;;23.30;16.27;;;;;;;;;;4775810;29;20034;-86
2021/09/07 04:12:43;;;;;;;23.23;16.13;;;;;;;;;;4803545;29;20068;-86
2021/09/07 04:15:09;;;;;;;20.67;15.88;;;;;;;;;;4783509;29;20554;-85
2021/09/07 04:17:34;;;;;;;22.50;16.55;;;;;;;;;;4805667;29;20121;-85
2021/09/07 04:23:22;;;;;;;21.70;16.08;;;;;;;;;;4819047;29;20040;-85
2021/09/07 04:25:48;;;;;;;22.52;15.98;;;;;;;;;;4769608;29;20038;-85
2021/09/07 04:28:15;;;;;;;25.98;16.23;;;;;;;;;;4790047;29;20042;-86
2021/09/07 04:30:40;;;;;;;23.10;16.48;;;;;;;;;;4780964;29;20035;-86
2021/09/07 04:33:06;;;;;;;23.52;16.20;;;;;;;;;;4788110;29;20038;-86
2021/09/07 04:35:31;;;;;;;22.67;16.10;;;;;;;;;;4776179;29;20089;-85
2021/09/07 04:37:57;;;;;;;23.15;15.45;;;;;;;;;;4791079;29;20045;-86
2021/09/07 04:40:22;;;;;;;22.20;16.02;;;;;;;;;;4789899;29;21652;-86
2021/09/07 04:42:48;;;;;;;21.85;15.90;;;;;;;;;;4775524;29;20129;-86
2021/09/07 04:45:13;;;;;;;20.00;14.95;;;;;;;;;;4787618;29;20090;-86
2021/09/07 04:47:39;;;;;;;23.15;15.98;;;;;;;;;;4764055;29;20039;-85
2021/09/07 04:50:05;;;;;;;20.83;15.32;;;;;;;;;;4762441;29;20031;-86
2021/09/07 04:52:31;;;;;;;22.52;15.35;;;;;;;;;;4788938;29;20410;-86
2021/09/07 04:54:57;;;;;;;23.35;16.25;;;;;;;;;;4806952;29;20034;-86
2021/09/07 04:57:22;;;;;;;21.55;15.18;;;;;;;;;;4791954;29;20131;-86
2021/09/07 04:59:47;;;;;;;24.20;16.23;;;;;;;;;;4779918;29;20050;-86
2021/09/07 05:02:13;;;;;;;24.88;16.48;;;;;;;;;;4782416;29;20497;-85
2021/09/07 05:04:38;;;;;;;24.17;15.52;;;;;;;;;;4768323;29;20125;-85
2021/09/07 05:07:04;;;;;;;24.23;15.73;;;;;;;;;;4774595;29;20567;-86
2021/09/07 05:09:29;;;;;;;22.83;15.60;;;;;;;;;;4782703;29;20062;-86
2021/09/07 05:11:54;;;;;;;24.25;16.77;;;;;;;;;;4774497;29;20121;-86
2021/09/07 05:14:20;;;;;;;25.40;16.60;;;;;;;;;;4788687;29;20383;-86
2021/09/07 05:16:45;;;;;;;24.35;16.00;;;;;;;;;;4768579;29;20034;-86
2021/09/07 05:19:13;;;;;;;21.25;15.05;;;;;;;;;;4778515;29;20054;-85
2021/09/07 05:21:39;;;;;;;23.40;16.48;;;;;;;;;;4781195;29;20052;-85
2021/09/07 05:24:05;;;;;;;22.08;16.13;;;;;;;;;;4787132;29;20030;-86
2021/09/07 05:26:30;;;;;;;23.35;16.45;;;;;;;;;;4793266;29;20068;-86
2021/09/07 05:28:56;;;;;;;20.98;15.48;;;;;;;;;;4774156;29;20034;-86
2021/09/07 05:31:21;;;;;;;21.00;14.95;;;;;;;;;;4777589;29;20035;-85
2021/09/07 05:33:47;;;;;;;23.90;15.98;;;;;;;;;;4784682;29;20043;-86
2021/09/07 05:36:12;;;;;;;22.80;15.57;;;;;;;;;;4786140;29;20066;-86
2021/09/07 05:38:37;;;;;;;21.02;15.32;;;;;;;;;;4792186;29;20054;-85
2021/09/07 05:41:12;;;;;;;21.48;15.32;;;;;;;;;;4766303;29;20046;-86
2021/09/07 05:43:40;;;;;;;23.42;15.60;;;;;;;;;;4783557;29;20489;-85
2021/09/07 05:46:15;;;;;;;20.92;14.52;;;;;;;;;;4790625;29;20062;-86
2021/09/07 05:48:45;;;;;;;23.60;15.30;;;;;;;;;;4809514;29;20026;-85
2021/09/07 05:51:15;;;;;;;23.13;15.35;;;;;;;;;;4790776;29;20098;-87
2021/09/07 05:53:43;;;;;;;22.10;15.73;;;;;;;;;;4787209;29;20486;-86
2021/09/07 05:56:12;;;;;;;22.48;15.38;;;;;;;;;;4776673;29;20027;-86
2021/09/07 05:58:44;;;;;;;21.42;15.77;;;;;;;;;;4825111;29;20030;-85
2021/09/07 06:01:18;;;;;;;24.02;15.43;;;;;;;;;;4791321;29;20065;-85
2021/09/07 06:03:44;;;;;;;22.02;15.55;;;;;;;;;;4780943;29;20031;-86
2021/09/07 06:06:16;;;;;;;22.92;16.17;;;;;;;;;;4788670;29;20043;-86
2021/09/07 06:08:45;;;;;;;23.40;15.80;;;;;;;;;;4777690;29;20042;-86
2021/09/07 06:11:16;;;;;;;21.88;15.48;;;;;;;;;;4779801;29;20816;-85
2021/09/07 06:13:46;;;;;;;24.67;15.93;;;;;;;;;;4781667;29;20087;-86
2021/09/07 06:16:18;;;;;;;22.73;15.95;;;;;;;;;;4800676;29;20071;-85
2021/09/07 06:18:48;;;;;;;23.30;15.18;;;;;;;;;;4791388;29;20049;-86
2021/09/07 06:21:16;;;;;;;20.73;14.70;;;;;;;;;;4799887;29;20064;-85
2021/09/07 06:23:47;;;;;;;22.48;14.77;;;;;;;;;;4774560;29;20041;-85
2021/09/07 06:26:15;;;;;;;21.33;14.80;;;;;;;;;;4795993;29;20043;-84
2021/09/07 06:28:47;;;;;;;23.02;14.90;;;;;;;;;;4796763;29;20764;-84
2021/09/07 06:31:12;;;;;;;23.13;15.13;;;;;;;;;;4810462;29;20113;-84
2021/09/07 06:33:38;;;;;;;23.58;16.50;;;;;;;;;;4793757;29;20466;-85
2021/09/07 06:36:03;;;;;;;29.33;17.77;;;;;;;;;;4795951;29;20054;-84
2021/09/07 06:38:29;;;;;;;29.98;18.98;;;;;;;;;;4795445;29;20035;-84
2021/09/07 06:40:54;;;;;;;26.63;18.40;;;;;;;;;;4803184;29;20076;-84
2021/09/07 06:43:20;;;;;;;27.35;19.15;;;;;;;;;;4792122;29;20038;-84
2021/09/07 06:45:51;;;;;;;29.92;19.35;;;;;;;;;;4801718;29;20046;-84
2021/09/07 06:48:16;;;;;;;29.63;19.48;;;;;;;;;;4810034;29;20769;-85
2021/09/07 06:50:42;;;;;;;32.00;19.90;;;;;;;;;;4784889;29;20179;-84
2021/09/07 06:53:08;;;;;;;32.25;19.67;;;;;;;;;;4793770;29;20042;-84
2021/09/07 06:55:33;;;;;;;30.35;19.60;;;;;;;;;;4795562;29;20126;-84
2021/09/07 06:57:59;;;;;;;30.85;20.40;;;;;;;;;;4776222;29;20052;-84
2021/09/07 07:00:24;;;;;;;30.40;19.52;;;;;;;;;;4796952;29;20026;-84
2021/09/07 07:02:53;;;;;;;30.50;19.45;;;;;;;;;;4786376;29;20064;-85
2021/09/07 07:05:26;;;;;;;31.35;20.60;;;;;;;;;;4783693;29;20113;-85
2021/09/07 07:07:54;;;;;;;33.13;22.13;;;;;;;;;;4828134;29;20066;-84
2021/09/07 07:10:26;;;;;;;28.77;21.00;;;;;;;;;;4788728;29;20031;-84
2021/09/07 07:12:57;;;;;;;30.10;21.08;;;;;;;;;;4792201;29;20042;-84
2021/09/07 07:15:26;;;;;;;31.77;21.85;;;;;;;;;;4801521;29;20133;-85
2021/09/07 07:17:58;;;;;;;34.92;22.40;;;;;;;;;;4791697;29;20042;-84
2021/09/07 07:20:32;;;;;;;32.35;21.58;;;;;;;;;;4788042;29;20042;-84
2021/09/07 07:22:59;;;;;;;31.45;21.13;;;;;;;;;;4797154;29;20034;-84
2021/09/07 07:25:24;;;;;;;32.20;22.05;;;;;;;;;;4779395;29;20138;-84
2021/09/07 07:27:50;;;;;;;33.55;22.48;;;;;;;;;;4786841;29;20043;-84
2021/09/07 07:30:15;;;;;;;33.90;22.70;;;;;;;;;;4795718;29;20810;-85
2021/09/07 07:32:41;;;;;;;30.08;21.15;;;;;;;;;;4811558;29;20065;-85
2021/09/07 07:35:07;;;;;;;33.30;22.05;;;;;;;;;;4809614;29;20427;-85
2021/09/07 07:37:32;;;;;;;33.70;23.42;;;;;;;;;;4792336;29;20041;-85
2021/09/07 07:39:58;;;;;;;34.13;22.38;;;;;;;;;;4793457;29;20113;-85
2021/09/07 07:42:23;;;;;;;35.28;22.98;;;;;;;;;;4800993;29;20042;-84
2021/09/07 07:44:49;;;;;;;34.92;23.67;;;;;;;;;;4778901;29;20052;-84
2021/09/07 07:47:15;;;;;;;34.05;23.85;;;;;;;;;;4770761;29;20091;-84
2021/09/07 07:49:40;;;;;;;36.20;24.77;;;;;;;;;;4810459;29;20030;-84
2021/09/07 07:52:06;;;;;;;33.70;23.60;;;;;;;;;;4789186;29;20084;-84
2021/09/07 07:54:32;;;;;;;33.20;23.90;;;;;;;;;;4803354;29;20034;-84
2021/09/07 07:56:57;;;;;;;33.95;24.30;;;;;;;;;;4773062;29;20062;-84
2021/09/07 07:59:23;;;;;;;36.95;23.17;;;;;;;;;;4777695;29;20624;-84
2021/09/07 08:01:48;;;;;;;39.92;23.90;;;;;;;;;;4789975;29;20061;-85
2021/09/07 08:04:15;;;;;;;35.33;23.52;;;;;;;;;;4794830;29;20103;-85
2021/09/07 08:06:40;;;;;;;34.92;23.15;;;;;;;;;;4797405;29;20041;-84
2021/09/07 08:09:06;;;;;;;38.95;24.95;;;;;;;;;;4780710;29;20034;-84
2021/09/07 08:11:32;;;;;;;39.83;23.67;;;;;;;;;;4797281;29;20088;-84
2021/09/07 08:13:58;;;;;;;35.85;22.85;;;;;;;;;;4777961;29;20506;-84
2021/09/07 08:16:24;;;;;;;35.35;23.23;;;;;;;;;;4822338;29;20769;-84
2021/09/07 08:18:50;;;;;;;41.65;24.63;;;;;;;;;;4793746;29;20033;-84
2021/09/07 08:21:15;;;;;;;38.42;23.50;;;;;;;;;;4797319;29;20036;-85
2021/09/07 08:23:41;;;;;;;39.00;22.67;;;;;;;;;;4783887;29;20030;-85
2021/09/07 08:26:06;;;;;;;34.95;23.15;;;;;;;;;;4781766;29;20041;-84
2021/09/07 08:28:31;;;;;;;35.38;22.90;;;;;;;;;;4773206;29;20034;-83
2021/09/07 08:30:57;;;;;;;38.40;22.35;;;;;;;;;;4806500;29;20804;-84
2021/09/07 08:33:23;;;;;;;39.80;22.27;;;;;;;;;;4791021;29;20041;-84
2021/09/07 08:35:50;;;;;;;35.88;21.70;;;;;;;;;;4819894;29;20062;-85
2021/09/07 08:38:15;;;;;;;32.22;21.25;;;;;;;;;;4777879;29;20043;-84
2021/09/07 08:40:41;;;;;;;35.83;21.65;;;;;;;;;;4806451;29;20042;-84
2021/09/07 08:43:07;;;;;;;33.25;21.90;;;;;;;;;;4769649;29;20056;-84
2021/09/07 08:45:33;;;;;;;34.78;21.05;;;;;;;;;;4789442;29;20523;-84
2021/09/07 08:48:01;;;;;;;35.13;21.40;;;;;;;;;;4791738;29;20071;-84
2021/09/07 08:50:27;;;;;;;28.80;19.52;;;;;;;;;;4800718;29;20034;-84
2021/09/07 08:53:01;;;;;;;32.17;19.30;;;;;;;;;;4793024;29;20117;-85
2021/09/07 08:55:28;;;;;;;32.13;19.23;;;;;;;;;;4800284;29;20034;-85
2021/09/07 08:57:54;;;;;;;28.30;18.13;;;;;;;;;;4784970;29;20048;-85
2021/09/07 09:00:28;;;;;;;28.35;17.77;;;;;;;;;;4770069;29;20060;-84
2021/09/07 09:02:54;;;;;;;27.58;17.73;;;;;;;;;;4813847;29;20036;-84
2021/09/07 09:05:29;;;;;;;26.08;17.90;;;;;;;;;;4795954;29;20129;-85
2021/09/07 09:07:56;;;;;;;29.30;17.77;;;;;;;;;;4808474;29;20031;-84
2021/09/07 09:10:22;;;;;;;30.30;17.30;;;;;;;;;;4807677;29;20673;-84
2021/09/07 09:12:48;;;;;;;25.23;16.15;;;;;;;;;;4797013;29;20045;-85
2021/09/07 09:15:16;;;;;;;25.38;16.40;;;;;;;;;;4784466;29;20035;-84
2021/09/07 09:17:41;;;;;;;22.80;15.82;;;;;;;;;;4807100;29;20098;-85
2021/09/07 09:20:14;;;;;;;21.42;15.50;;;;;;;;;;4807528;29;20042;-85
2021/09/07 09:23:01;;;;;;;26.38;15.90;;;;;;;;;;4814413;29;20030;-83
2021/09/07 09:25:35;;;;;;;22.90;14.90;;;;;;;;;;4805892;29;20048;-85
2021/09/07 09:28:15;;;;;;;21.77;14.13;;;;;;;;;;4801316;29;20034;-84
2021/09/07 09:31:01;;;;;;;21.65;13.80;;;;;;;;;;4799289;29;20027;-85
2021/09/07 09:33:28;;;;;;;21.48;15.23;;;;;;;;;;4821201;29;20469;-84
2021/09/07 09:36:00;;;;;;;23.08;14.32;;;;;;;;;;4808783;29;20050;-84
2021/09/07 09:38:35;;;;;;;22.55;15.10;;;;;;;;;;4811325;29;20053;-84
2021/09/07 09:41:02;;;;;;;24.90;14.90;;;;;;;;;;4800614;29;20042;-85
2021/09/07 09:43:48;;;;;;;25.17;15.30;;;;;;;;;;4825720;29;20105;-84
2021/09/07 09:46:25;;;;;;;18.20;12.82;;;;;;;;;;4807999;29;20125;-84
2021/09/07 09:48:52;;;;;;;19.05;12.38;;;;;;;;;;4825551;29;20035;-84
2021/09/07 09:51:19;;;;;;;18.95;11.65;;;;;;;;;;4784915;29;20095;-85
2021/09/07 09:53:47;;;;;;;15.73;11.55;;;;;;;;;;4779369;29;20418;-85
2021/09/07 09:56:13;;;;;;;16.92;11.98;;;;;;;;;;4795214;29;20030;-84
2021/09/07 09:58:39;;;;;;;19.45;12.60;;;;;;;;;;4799422;29;20439;-85
2021/09/07 10:01:05;;;;;;;18.20;11.52;;;;;;;;;;4785121;29;20054;-84
2021/09/07 10:03:31;;;;;;;20.67;12.90;;;;;;;;;;4821385;29;20037;-85
2021/09/07 10:05:57;;;;;;;17.65;12.85;;;;;;;;;;4774887;29;20176;-84
2021/09/07 10:08:23;;;;;;;16.60;11.57;;;;;;;;;;4800795;29;20086;-84
2021/09/07 10:10:59;;;;;;;16.90;11.77;;;;;;;;;;4787488;29;20057;-85
2021/09/07 10:13:26;;;;;;;19.33;12.55;;;;;;;;;;4802738;29;20037;-84
2021/09/07 10:16:02;;;;;;;18.63;12.32;;;;;;;;;;4786910;29;20034;-84
2021/09/07 10:18:36;;;;;;;18.30;13.13;;;;;;;;;;4784771;29;20035;-84
2021/09/07 10:23:52;;;;;;;19.70;11.57;;;;;;;;;;4807269;29;20046;-84
2021/09/07 10:26:41;;;;;;;17.15;11.45;;;;;;;;;;4806486;29;20030;-83
2021/09/07 10:29:08;;;;;;;16.52;10.90;;;;;;;;;;4815657;29;20160;-84
2021/09/07 10:31:41;;;;;;;18.77;11.13;;;;;;;;;;4811755;29;20041;-84
2021/09/07 10:34:07;;;;;;;17.88;11.02;;;;;;;;;;4809014;29;20042;-84
2021/09/07 10:36:36;;;;;;;16.25;10.88;;;;;;;;;;4782250;29;20070;-85
2021/09/07 10:39:04;;;;;;;17.88;10.73;;;;;;;;;;4798752;29;20041;-84
2021/09/07 10:41:29;;;;;;;16.73;10.48;;;;;;;;;;4789378;29;20045;-85
2021/09/07 10:43:57;;;;;;;14.65;10.85;;;;;;;;;;4810694;29;21282;-85
2021/09/07 10:46:43;;;;;;;14.48;10.90;;;;;;;;;;4797671;29;20075;-85
2021/09/07 10:49:21;;;;;;;14.65;10.02;;;;;;;;;;4802852;29;20030;-85
2021/09/07 10:52:04;;;;;;;16.55;10.38;;;;;;;;;;4809425;29;20072;-85
2021/09/07 10:54:32;;;;;;;16.88;11.75;;;;;;;;;;4826075;29;20345;-85
2021/09/07 10:56:59;;;;;;;16.48;10.77;;;;;;;;;;4799406;29;20041;-85
2021/09/07 10:59:45;;;;;;;18.42;11.95;;;;;;;;;;4802926;29;20402;-85
2021/09/07 11:02:29;;;;;;;16.13;10.05;;;;;;;;;;4789702;29;20041;-84
2021/09/07 11:04:55;;;;;;;15.95;10.77;;;;;;;;;;4801225;29;20122;-84
2021/09/07 11:07:44;;;;;;;17.40;11.32;;;;;;;;;;4784656;29;20094;-84
2021/09/07 11:10:29;;;;;;;17.55;10.93;;;;;;;;;;4796196;29;20023;-85
2021/09/07 11:12:58;;;;;;;14.95;10.65;;;;;;;;;;4805633;29;20167;-84
2021/09/07 11:15:25;;;;;;;20.95;11.45;;;;;;;;;;4825062;29;20402;-84
2021/09/07 11:17:56;;;;;;;16.70;10.75;;;;;;;;;;4777759;29;20038;-85
2021/09/07 11:20:25;;;;;;;16.65;11.35;;;;;;;;;;4806517;29;20048;-85
2021/09/07 11:22:51;;;;;;;15.90;10.70;;;;;;;;;;4804134;29;20058;-85
2021/09/07 11:25:19;;;;;;;15.43;10.98;;;;;;;;;;4803765;29;20152;-84
2021/09/07 11:27:59;;;;;;;18.60;11.18;;;;;;;;;;4807473;29;20114;-84
2021/09/07 11:30:51;;;;;;;14.60;9.57;;;;;;;;;;4803208;29;20134;-84
2021/09/07 11:33:42;;;;;;;12.50;8.68;;;;;;;;;;4812910;29;20067;-85
2021/09/07 11:36:07;;;;;;;14.73;9.68;;;;;;;;;;4785829;29;20182;-85
2021/09/07 11:38:43;;;;;;;16.38;10.90;;;;;;;;;;4831802;29;20512;-84
2021/09/07 11:41:14;;;;;;;14.13;10.15;;;;;;;;;;4805731;29;20550;-84
2021/09/07 11:43:42;;;;;;;18.40;11.00;;;;;;;;;;4796437;29;20035;-85
2021/09/07 11:46:32;;;;;;;13.93;10.27;;;;;;;;;;4804517;29;20115;-85
2021/09/07 11:49:13;;;;;;;15.23;10.82;;;;;;;;;;4791848;29;20035;-84
2021/09/07 11:54:40;;;;;;;15.57;9.43;;;;;;;;;;4786294;30;20047;-84
2021/09/07 11:57:11;;;;;;;13.98;8.70;;;;;;;;;;4788377;29;20055;-84
2021/09/07 12:00:11;;;;;;;11.52;8.55;;;;;;;;;;4808023;29;20571;-85
2021/09/07 12:02:45;;;;;;;15.15;10.13;;;;;;;;;;4783134;29;20055;-84
2021/09/07 12:05:10;;;;;;;11.95;9.00;;;;;;;;;;4775741;29;20118;-84
2021/09/07 12:08:16;;;;;;;12.80;9.00;;;;;;;;;;4774389;29;20083;-84
2021/09/07 12:14:12;;;;;;;12.43;9.40;;;;;;;;;;4745661;30;20041;-84
2021/09/07 12:17:04;;;;;;;11.52;8.57;;;;;;;;;;4800270;29;20970;-84
2021/09/07 12:19:55;;;;;;;14.60;10.13;;;;;;;;;;4806614;29;20034;-84
2021/09/07 12:22:46;;;;;;;15.30;9.73;;;;;;;;;;4797747;29;20038;-84
2021/09/07 12:25:17;;;;;;;11.75;8.93;;;;;;;;;;4806589;29;20389;-85
2021/09/07 12:28:16;;;;;;;15.27;10.70;;;;;;;;;;4797707;29;20039;-84
2021/09/07 12:30:42;;;;;;;18.75;11.30;;;;;;;;;;4800010;29;20678;-84
2021/09/07 12:33:08;;;;;;;12.23;8.88;;;;;;;;;;4786776;29;20137;-84
2021/09/07 12:35:39;;;;;;;14.73;10.27;;;;;;;;;;4794795;29;20058;-85
2021/09/07 12:38:14;;;;;;;16.00;11.00;;;;;;;;;;4803342;29;20770;-85
2021/09/07 12:40:42;;;;;;;13.00;9.20;;;;;;;;;;4792882;29;20705;-85
2021/09/07 12:43:18;;;;;;;13.07;8.85;;;;;;;;;;4804874;29;20035;-84
2021/09/07 12:45:57;;;;;;;13.65;9.48;;;;;;;;;;4804197;29;20030;-84
2021/09/07 12:48:23;;;;;;;12.50;8.98;;;;;;;;;;4790752;29;20075;-84
2021/09/07 12:50:49;;;;;;;14.70;9.93;;;;;;;;;;4781671;29;20047;-84
2021/09/07 12:53:34;;;;;;;;;;;;;;;;;;;;;
2021/09/07 12:56:05;;;;;;;14.13;10.15;;;;;;;;;;4750164;30;20040;-84
2021/09/07 12:58:34;;;;;;;14.23;9.45;;;;;;;;;;4786288;29;20112;-84
2021/09/07 13:01:25;;;;;;;14.15;9.88;;;;;;;;;;4795941;29;20567;-85
2021/09/07 13:03:52;;;;;;;18.23;11.02;;;;;;;;;;4806586;29;20042;-84
2021/09/07 13:10:23;;;;;;;14.25;10.70;;;;;;;;;;4801876;29;20465;-84
2021/09/07 13:12:55;;;;;;;14.05;9.82;;;;;;;;;;4800984;29;20119;-84
2021/09/07 13:16:04;;;;;;;;;;;;;;;;;;;;;
2021/09/07 13:18:54;;;;;;;13.85;9.32;;;;;;;;;;4739543;29;20798;-84
2021/09/07 13:21:20;;;;;;;18.85;9.77;;;;;;;;;;4757633;29;20057;-84
2021/09/07 13:23:53;;;;;;;12.63;9.02;;;;;;;;;;4788635;29;20100;-84
2021/09/07 13:26:18;;;;;;;12.27;8.30;;;;;;;;;;4787583;29;20042;-84
2021/09/07 13:28:43;;;;;;;11.40;8.07;;;;;;;;;;4794245;29;20047;-84
2021/09/07 13:31:09;;;;;;;10.80;7.60;;;;;;;;;;4775883;29;20493;-85
2021/09/07 13:33:34;;;;;;;11.02;7.97;;;;;;;;;;4769741;30;20050;-84
2021/09/07 13:36:01;;;;;;;15.60;10.32;;;;;;;;;;4796436;29;20116;-84
2021/09/07 13:38:26;;;;;;;17.50;11.13;;;;;;;;;;4784586;30;20042;-84
2021/09/07 13:40:57;;;;;;;14.88;10.48;;;;;;;;;;4778867;29;20042;-84
2021/09/07 13:43:31;;;;;;;20.95;11.70;;;;;;;;;;4795852;29;20039;-84
2021/09/07 13:45:59;;;;;;;15.75;11.13;;;;;;;;;;4780432;29;20093;-84
2021/09/07 13:49:00;;;;;;;17.02;10.77;;;;;;;;;;4778218;29;20042;-84
2021/09/07 13:51:29;;;;;;;15.43;10.27;;;;;;;;;;4759324;29;20042;-84
2021/09/07 13:54:00;;;;;;;10.55;8.68;;;;;;;;;;4786742;29;20810;-84
2021/09/07 13:57:01;;;;;;;17.52;10.05;;;;;;;;;;4775569;29;20049;-84
2021/09/07 13:59:30;;;;;;;12.38;9.43;;;;;;;;;;4807970;29;20062;-84
2021/09/07 14:02:02;;;;;;;12.85;8.77;;;;;;;;;;4809212;29;20051;-84
2021/09/07 14:04:30;;;;;;;12.88;7.95;;;;;;;;;;4788563;29;20041;-84
2021/09/07 14:07:06;;;;;;;11.13;8.38;;;;;;;;;;4818311;29;20030;-84
2021/09/07 14:09:31;;;;;;;10.48;8.05;;;;;;;;;;4779796;29;20045;-84
2021/09/07 14:12:03;;;;;;;11.70;8.18;;;;;;;;;;4778532;29;20093;-84
2021/09/07 14:17:32;;;;;;;12.02;8.57;;;;;;;;;;4820240;29;20029;-84
2021/09/07 14:20:05;;;;;;;11.13;9.13;;;;;;;;;;4804300;29;20137;-84
2021/09/07 14:22:36;;;;;;;12.73;9.13;;;;;;;;;;4782989;29;20119;-84
2021/09/07 14:25:03;;;;;;;14.82;9.63;;;;;;;;;;4797701;29;20042;-84
2021/09/07 14:27:29;;;;;;;12.60;9.25;;;;;;;;;;4821424;29;20109;-84
2021/09/07 14:29:56;;;;;;;12.27;9.40;;;;;;;;;;4789506;29;20029;-84
2021/09/07 14:32:22;;;;;;;12.85;9.38;;;;;;;;;;4779863;29;20161;-85
2021/09/07 14:34:50;;;;;;;12.27;9.13;;;;;;;;;;4800587;29;20580;-84
2021/09/07 14:37:15;;;;;;;14.45;10.07;;;;;;;;;;4772230;29;20058;-84
2021/09/07 14:39:40;;;;;;;12.85;9.32;;;;;;;;;;4776600;29;20041;-84
2021/09/07 14:42:06;;;;;;;13.80;9.77;;;;;;;;;;4787021;29;20030;-84
2021/09/07 14:44:33;;;;;;;16.50;11.25;;;;;;;;;;4773989;29;20126;-84
2021/09/07 14:47:01;;;;;;;15.23;10.13;;;;;;;;;;4784663;29;20511;-84
2021/09/07 14:49:27;;;;;;;14.57;10.80;;;;;;;;;;4800480;29;20728;-83
2021/09/07 14:51:52;;;;;;;16.80;10.43;;;;;;;;;;4776529;29;20031;-84